createdAt,value
2018-07-24T00:00:03.337Z,20.40
2018-07-24T00:02:31.979Z,20.30
2018-07-24T00:05:00.525Z,20.30
2018-07-24T00:07:28.994Z,20.30
2018-07-24T00:09:57.781Z,20.20
2018-07-24T00:12:26.230Z,20.20
2018-07-24T00:14:54.674Z,20.20
2018-07-24T00:17:23.216Z,20.10
2018-07-24T00:19:51.705Z,20.10
2018-07-24T00:22:20.205Z,20.20
2018-07-24T00:24:48.821Z,20.20
2018-07-24T00:27:17.330Z,20.20
2018-07-24T00:29:45.760Z,20.20
2018-07-24T00:32:14.277Z,20.20
2018-07-24T00:34:42.878Z,20.10
2018-07-24T00:37:11.345Z,20.10
2018-07-24T00:39:39.777Z,20.10
2018-07-24T00:42:08.260Z,20.00
2018-07-24T00:44:36.764Z,20.00
2018-07-24T00:47:05.260Z,20.00
2018-07-24T00:49:33.728Z,20.00
2018-07-24T00:52:02.235Z,20.00
2018-07-24T00:54:30.724Z,20.00
2018-07-24T00:56:59.167Z,20.00
2018-07-24T00:59:27.649Z,19.90
2018-07-24T01:01:56.119Z,19.90
2018-07-24T01:04:25.178Z,19.90
2018-07-24T01:06:53.721Z,19.90
2018-07-24T01:09:22.824Z,19.80
2018-07-24T01:11:51.322Z,19.80
2018-07-24T01:14:20.202Z,19.80
2018-07-24T01:16:48.808Z,19.80
2018-07-24T01:19:17.883Z,19.80
2018-07-24T01:21:46.377Z,19.80
2018-07-24T01:24:14.901Z,19.80
2018-07-24T01:26:43.487Z,19.80
2018-07-24T01:29:11.990Z,19.90
2018-07-24T01:31:41.141Z,19.80
2018-07-24T01:34:09.615Z,19.80
2018-07-24T01:36:38.057Z,19.80
2018-07-24T01:39:08.596Z,19.70
2018-07-24T01:41:37.041Z,19.70
2018-07-24T01:44:05.580Z,19.70
2018-07-24T01:46:34.081Z,19.70
2018-07-24T01:49:02.581Z,19.70
2018-07-24T01:51:31.615Z,19.80
2018-07-24T01:54:00.134Z,19.70
2018-07-24T01:56:29.633Z,19.70
2018-07-24T01:58:58.150Z,19.70
2018-07-24T02:01:26.658Z,19.70
2018-07-24T02:03:55.159Z,19.70
2018-07-24T02:06:23.619Z,19.70
2018-07-24T02:08:52.071Z,19.60
2018-07-24T02:11:20.572Z,19.60
2018-07-24T02:13:49.123Z,19.50
2018-07-24T02:16:17.725Z,19.40
2018-07-24T02:21:14.327Z,19.30
2018-07-24T02:23:43.068Z,19.20
2018-07-24T02:26:11.536Z,19.20
2018-07-24T02:28:40.010Z,19.20
2018-07-24T02:31:08.484Z,19.10
2018-07-24T02:33:36.980Z,19.10
2018-07-24T02:36:05.598Z,19.10
2018-07-24T02:38:34.111Z,19.10
2018-07-24T02:41:02.598Z,19.00
2018-07-24T02:43:31.198Z,19.00
2018-07-24T02:45:59.754Z,18.90
2018-07-24T02:48:28.237Z,19.00
2018-07-24T02:50:56.846Z,18.90
2018-07-24T02:53:25.309Z,18.90
2018-07-24T02:55:54.031Z,18.90
2018-07-24T02:58:23.362Z,18.80
2018-07-24T03:00:51.865Z,18.80
2018-07-24T03:03:21.347Z,18.80
2018-07-24T03:05:49.811Z,18.80
2018-07-24T03:08:18.361Z,18.90
2018-07-24T03:10:46.936Z,18.80
2018-07-24T03:13:15.416Z,18.90
2018-07-24T03:15:43.928Z,18.80
2018-07-24T03:18:13.015Z,18.80
2018-07-24T03:20:41.643Z,18.90
2018-07-24T03:23:10.195Z,18.90
2018-07-24T03:25:38.665Z,18.90
2018-07-24T03:28:07.181Z,18.90
2018-07-24T03:30:35.632Z,18.90
2018-07-24T03:33:04.175Z,18.90
2018-07-24T03:35:32.692Z,18.90
2018-07-24T03:38:01.282Z,18.90
2018-07-24T03:40:29.793Z,18.80
2018-07-24T03:42:58.384Z,18.80
2018-07-24T03:45:26.903Z,18.80
2018-07-24T03:47:55.447Z,18.70
2018-07-24T03:50:23.918Z,18.70
2018-07-24T03:52:52.872Z,18.60
2018-07-24T03:55:21.337Z,18.60
2018-07-24T04:02:46.202Z,18.60
2018-07-24T04:05:14.725Z,18.60
2018-07-24T04:07:43.294Z,18.60
2018-07-24T04:10:11.790Z,18.60
2018-07-24T04:12:40.243Z,18.60
2018-07-24T04:15:08.800Z,18.70
2018-07-24T04:17:37.269Z,18.70
2018-07-24T04:20:05.785Z,18.80
2018-07-24T04:22:34.953Z,18.80
2018-07-24T04:25:03.505Z,18.80
2018-07-24T04:27:31.988Z,18.80
2018-07-24T04:30:00.540Z,18.90
2018-07-24T04:32:29.272Z,18.90
2018-07-24T04:34:57.867Z,19.00
2018-07-24T04:37:27.010Z,19.00
2018-07-24T04:39:55.548Z,19.00
2018-07-24T04:42:24.041Z,19.10
2018-07-24T04:44:52.775Z,19.10
2018-07-24T04:47:21.308Z,19.20
2018-07-24T04:49:49.796Z,19.20
2018-07-24T04:52:18.324Z,19.30
2018-07-24T04:54:47.006Z,19.40
2018-07-24T04:57:15.461Z,19.40
2018-07-24T04:59:43.954Z,19.50
2018-07-24T05:02:12.701Z,19.50
2018-07-24T05:04:41.312Z,19.60
2018-07-24T05:07:10.027Z,19.70
2018-07-24T05:09:38.564Z,19.70
2018-07-24T05:12:07.178Z,19.80
2018-07-24T05:14:36.428Z,19.80
2018-07-24T05:17:04.918Z,19.80
2018-07-24T05:19:33.448Z,19.90
2018-07-24T05:22:01.985Z,19.90
2018-07-24T05:24:32.191Z,20.00
2018-07-24T05:27:00.689Z,20.10
2018-07-24T05:29:29.241Z,20.10
2018-07-24T05:32:28.529Z,20.20
2018-07-24T05:34:56.995Z,20.20
2018-07-24T05:37:25.468Z,20.30
2018-07-24T05:39:53.936Z,20.40
2018-07-24T05:42:22.495Z,20.50
2018-07-24T05:44:51.042Z,20.60
2018-07-24T05:47:19.529Z,20.70
2018-07-24T05:49:48.022Z,20.70
2018-07-24T05:52:16.535Z,20.80
2018-07-24T05:54:45.209Z,20.90
2018-07-24T05:57:13.692Z,21.00
2018-07-24T05:59:42.136Z,21.00
2018-07-24T06:02:10.858Z,21.10
2018-07-24T06:04:39.495Z,21.10
2018-07-24T06:07:07.972Z,21.10
2018-07-24T06:09:36.446Z,21.30
2018-07-24T06:12:05.097Z,21.30
2018-07-24T06:14:33.695Z,21.40
2018-07-24T06:17:02.297Z,21.40
2018-07-24T06:19:30.872Z,21.60
2018-07-24T06:22:00.379Z,21.70
2018-07-24T06:24:28.884Z,21.80
2018-07-24T06:26:57.448Z,21.90
2018-07-24T06:29:25.988Z,22.00
2018-07-24T06:31:55.577Z,22.10
2018-07-24T06:34:24.033Z,22.20
2018-07-24T06:36:52.567Z,22.30
2018-07-24T06:39:21.084Z,22.40
2018-07-24T06:41:49.561Z,22.50
2018-07-24T06:44:18.122Z,22.70
2018-07-24T06:46:47.078Z,22.80
2018-07-24T06:49:15.629Z,22.80
2018-07-24T06:54:13.269Z,23.00
2018-07-24T06:56:41.881Z,23.10
2018-07-24T06:59:10.364Z,23.20
2018-07-24T07:01:38.878Z,23.30
2018-07-24T07:04:07.382Z,23.50
2018-07-24T07:06:35.881Z,23.50
2018-07-24T07:09:07.379Z,23.60
2018-07-24T07:11:36.703Z,23.70
2018-07-24T07:14:05.919Z,23.90
2018-07-24T07:16:34.793Z,23.90
2018-07-24T07:19:03.345Z,24.10
2018-07-24T07:21:31.899Z,24.20
2018-07-24T07:24:01.149Z,24.30
2018-07-24T07:26:29.640Z,24.40
2018-07-24T07:28:58.124Z,24.50
2018-07-24T07:31:26.719Z,24.60
2018-07-24T07:33:55.347Z,24.80
2018-07-24T07:36:23.924Z,25.00
2018-07-24T07:38:52.423Z,25.00
2018-07-24T07:41:20.865Z,25.10
2018-07-24T07:43:49.350Z,25.30
2018-07-24T07:46:17.829Z,25.30
2018-07-24T07:48:46.325Z,25.40
2018-07-24T07:51:14.830Z,25.50
2018-07-24T07:53:44.268Z,25.60
2018-07-24T07:56:12.765Z,25.60
2018-07-24T07:58:41.276Z,25.70
2018-07-24T08:01:09.893Z,25.70
2018-07-24T08:03:38.375Z,25.80
2018-07-24T08:06:06.847Z,26.00
2018-07-24T08:08:36.037Z,26.10
2018-07-24T08:11:04.701Z,26.20
2018-07-24T08:13:33.368Z,26.20
2018-07-24T08:16:01.921Z,26.50
2018-07-24T08:18:30.598Z,26.50
2018-07-24T08:20:59.114Z,26.60
2018-07-24T08:23:27.741Z,26.80
2018-07-24T08:25:56.289Z,26.80
2018-07-24T08:28:24.734Z,26.80
2018-07-24T08:30:53.225Z,26.90
2018-07-24T08:33:21.702Z,27.20
2018-07-24T08:35:50.172Z,27.40
2018-07-24T08:38:18.778Z,27.50
2018-07-24T08:40:47.292Z,27.50
2018-07-24T08:43:15.789Z,27.60
2018-07-24T08:45:44.240Z,27.70
2018-07-24T08:48:12.797Z,27.70
2018-07-24T08:50:41.309Z,27.90
2018-07-24T08:53:10.050Z,28.00
2018-07-24T08:55:38.657Z,28.20
2018-07-24T08:58:07.172Z,28.30
2018-07-24T09:00:35.808Z,28.50
2018-07-24T09:03:04.367Z,28.40
2018-07-24T09:05:32.990Z,28.30
2018-07-24T09:08:01.451Z,28.40
2018-07-24T09:10:30.005Z,28.50
2018-07-24T09:12:58.481Z,28.50
2018-07-24T09:15:27.074Z,28.50
2018-07-24T09:17:55.527Z,28.50
2018-07-24T09:20:23.990Z,28.80
2018-07-24T09:22:52.471Z,28.90
2018-07-24T09:25:21.018Z,28.90
2018-07-24T09:27:49.445Z,28.90
2018-07-24T09:30:17.997Z,29.00
2018-07-24T09:32:46.448Z,29.10
2018-07-24T09:35:15.025Z,29.10
2018-07-24T09:37:43.492Z,29.10
2018-07-24T09:40:12.020Z,29.40
2018-07-24T09:42:40.533Z,29.50
2018-07-24T09:45:09.046Z,29.60
2018-07-24T09:47:37.545Z,29.30
2018-07-24T09:50:06.321Z,29.50
2018-07-24T09:52:34.839Z,29.70
2018-07-24T09:55:04.669Z,29.80
2018-07-24T09:57:33.181Z,30.10
2018-07-24T10:00:01.739Z,30.10
2018-07-24T10:02:30.320Z,30.10
2018-07-24T10:04:58.930Z,30.20
2018-07-24T10:07:28.538Z,30.40
2018-07-24T10:09:57.191Z,30.20
2018-07-24T10:14:54.407Z,30.50
2018-07-24T10:17:23.148Z,30.60
2018-07-24T10:19:51.698Z,31.00
2018-07-24T10:22:20.409Z,31.20
2018-07-24T10:24:48.908Z,31.10
2018-07-24T10:29:45.561Z,31.00
2018-07-24T10:32:14.137Z,31.20
2018-07-24T10:34:42.659Z,31.40
2018-07-24T10:37:11.367Z,31.70
2018-07-24T10:39:39.870Z,31.60
2018-07-24T10:42:08.406Z,31.70
2018-07-24T10:47:05.244Z,32.00
2018-07-24T10:49:34.184Z,32.20
2018-07-24T10:52:02.812Z,32.50
2018-07-24T10:54:31.541Z,32.50
2018-07-24T10:57:00.019Z,32.70
2018-07-24T10:59:29.554Z,32.30
2018-07-24T11:01:58.061Z,32.40
2018-07-24T11:04:26.573Z,31.80
2018-07-24T11:06:58.190Z,31.60
2018-07-24T11:09:26.763Z,31.30
2018-07-24T11:11:57.704Z,31.80
2018-07-24T11:14:26.260Z,31.80
2018-07-24T11:16:54.791Z,31.70
2018-07-24T11:19:23.381Z,31.70
2018-07-24T11:21:51.964Z,31.50
2018-07-24T11:24:20.436Z,31.20
2018-07-24T11:31:45.682Z,31.20
2018-07-24T11:34:14.215Z,31.10
2018-07-24T11:36:42.739Z,31.10
2018-07-24T11:39:11.887Z,31.10
2018-07-24T11:41:40.539Z,30.90
2018-07-24T11:44:09.220Z,31.10
2018-07-24T11:46:37.697Z,31.50
2018-07-24T11:49:06.202Z,31.60
2018-07-24T11:51:34.820Z,31.70
2018-07-24T11:54:03.296Z,32.10
2018-07-24T11:56:31.876Z,32.10
2018-07-24T12:01:28.579Z,32.00
2018-07-24T12:03:57.096Z,32.10
2018-07-24T12:06:25.640Z,31.60
2018-07-24T12:08:54.775Z,31.50
2018-07-24T12:11:23.290Z,31.40
2018-07-24T12:13:51.833Z,31.40
2018-07-24T12:16:20.547Z,31.50
2018-07-24T12:18:49.069Z,32.00
2018-07-24T12:21:17.745Z,32.10
2018-07-24T12:23:46.408Z,32.20
2018-07-24T12:26:15.913Z,32.30
2018-07-24T12:28:44.425Z,32.00
2018-07-24T12:33:41.975Z,32.30
2018-07-24T12:36:11.596Z,32.20
2018-07-24T12:38:40.332Z,32.00
2018-07-24T12:41:08.962Z,32.00
2018-07-24T12:43:37.539Z,32.10
2018-07-24T12:46:06.138Z,31.90
2018-07-24T12:48:34.785Z,32.00
2018-07-24T12:53:31.568Z,31.70
2018-07-24T12:56:00.103Z,31.80
2018-07-24T12:58:28.705Z,31.90
2018-07-24T13:00:57.265Z,32.20
2018-07-24T13:03:25.911Z,31.90
2018-07-24T13:05:54.489Z,31.90
2018-07-24T13:08:23.213Z,32.30
2018-07-24T13:10:51.864Z,32.60
2018-07-24T13:13:20.303Z,32.90
2018-07-24T13:15:48.897Z,32.40
2018-07-24T13:18:18.334Z,32.40
2018-07-24T13:20:46.997Z,32.50
2018-07-24T13:23:15.578Z,32.80
2018-07-24T13:25:44.160Z,32.80
2018-07-24T13:28:12.686Z,32.70
2018-07-24T13:30:41.309Z,32.50
2018-07-24T13:33:09.839Z,32.30
2018-07-24T13:35:38.357Z,32.60
2018-07-24T13:38:07.946Z,32.40
2018-07-24T13:40:36.484Z,32.70
2018-07-24T13:43:05.004Z,32.70
2018-07-24T13:45:34.492Z,32.20
2018-07-24T13:48:02.988Z,32.30
2018-07-24T13:50:34.332Z,32.30
2018-07-24T13:53:02.980Z,32.30
2018-07-24T13:55:31.463Z,32.60
2018-07-24T13:58:00.177Z,32.30
2018-07-24T14:00:28.751Z,32.00
2018-07-24T14:02:57.367Z,32.50
2018-07-24T14:05:26.651Z,32.30
2018-07-24T14:07:55.196Z,32.00
2018-07-24T14:10:23.784Z,32.10
2018-07-24T14:12:52.487Z,32.10
2018-07-24T14:15:21.002Z,32.10
2018-07-24T14:17:49.548Z,32.20
2018-07-24T14:20:18.130Z,31.80
2018-07-24T14:22:46.593Z,31.50
2018-07-24T14:25:15.223Z,31.20
2018-07-24T14:30:12.030Z,31.20
2018-07-24T14:32:40.566Z,31.00
2018-07-24T14:35:09.090Z,31.20
2018-07-24T14:37:37.664Z,31.60
2018-07-24T14:40:06.366Z,31.60
2018-07-24T14:42:35.026Z,31.30
2018-07-24T14:45:03.715Z,31.70
2018-07-24T14:47:32.507Z,32.00
2018-07-24T14:50:01.064Z,32.30
2018-07-24T14:52:30.192Z,32.60
2018-07-24T14:54:58.920Z,32.50
2018-07-24T14:57:28.007Z,32.20
2018-07-24T14:59:56.570Z,31.80
2018-07-24T15:02:25.242Z,32.10
2018-07-24T15:04:53.752Z,32.30
2018-07-24T15:07:22.337Z,32.20
2018-07-24T15:09:50.957Z,32.30
2018-07-24T15:12:19.473Z,32.60
2018-07-24T15:14:49.056Z,32.80
2018-07-24T15:17:17.612Z,32.20
2018-07-24T15:19:46.253Z,32.50
2018-07-24T15:22:14.962Z,32.60
2018-07-24T15:24:43.737Z,32.40
2018-07-24T15:27:12.315Z,32.60
2018-07-24T15:29:41.467Z,32.10
2018-07-24T15:32:10.060Z,32.30
2018-07-24T15:34:38.820Z,32.30
2018-07-24T15:37:07.271Z,32.60
2018-07-24T15:39:36.231Z,33.10
2018-07-24T15:42:04.903Z,32.70
2018-07-24T15:44:33.436Z,32.70
2018-07-24T15:47:02.088Z,32.70
2018-07-24T15:49:30.656Z,32.70
2018-07-24T15:51:59.180Z,33.00
2018-07-24T15:54:27.841Z,32.30
2018-07-24T15:56:56.391Z,32.00
2018-07-24T15:59:25.334Z,31.90
2018-07-24T16:01:53.813Z,32.10
2018-07-24T16:04:22.347Z,31.90
2018-07-24T16:06:50.891Z,32.00
2018-07-24T16:09:19.563Z,32.20
2018-07-24T16:11:48.131Z,32.10
2018-07-24T16:14:16.597Z,32.10
2018-07-24T16:16:45.197Z,31.80
2018-07-24T16:19:13.796Z,31.60
2018-07-24T16:21:42.406Z,31.70
2018-07-24T16:24:10.961Z,31.30
2018-07-24T16:26:39.478Z,31.60
2018-07-24T16:29:08.050Z,31.20
2018-07-24T16:31:36.645Z,31.20
2018-07-24T16:34:06.172Z,31.20
2018-07-24T16:36:34.859Z,31.20
2018-07-24T16:39:03.962Z,31.40
2018-07-24T16:41:32.664Z,31.50
2018-07-24T16:44:01.239Z,31.50
2018-07-24T16:46:29.918Z,31.00
2018-07-24T16:49:00.176Z,31.30
2018-07-24T16:51:28.831Z,31.00
2018-07-24T16:53:57.590Z,30.80
2018-07-24T16:56:26.110Z,30.90
2018-07-24T16:58:55.263Z,31.00
2018-07-24T17:01:24.058Z,30.90
2018-07-24T17:03:52.544Z,30.90
2018-07-24T17:06:21.677Z,31.20
2018-07-24T17:08:50.183Z,31.00
2018-07-24T17:11:18.677Z,31.00
2018-07-24T17:13:47.350Z,30.80
2018-07-24T17:16:15.993Z,30.60
2018-07-24T17:18:44.462Z,30.10
2018-07-24T17:23:41.172Z,30.10
2018-07-24T17:26:09.800Z,29.80
2018-07-24T17:28:38.355Z,29.20
2018-07-24T17:33:36.082Z,28.70
2018-07-24T17:38:33.249Z,28.50
2018-07-24T17:41:01.776Z,28.50
2018-07-24T17:43:30.335Z,28.60
2018-07-24T17:45:58.795Z,28.30
2018-07-24T17:48:27.389Z,27.90
2018-07-24T17:50:55.817Z,28.00
2018-07-24T17:53:24.370Z,27.90
2018-07-24T17:55:52.834Z,27.80
2018-07-24T17:58:22.849Z,27.90
2018-07-24T18:00:51.381Z,27.60
2018-07-24T18:03:19.920Z,27.30
2018-07-24T18:05:48.505Z,27.00
2018-07-24T18:08:17.029Z,27.00
2018-07-24T18:10:45.605Z,27.00
2018-07-24T18:13:14.608Z,26.70
2018-07-24T18:15:43.141Z,26.80
2018-07-24T18:18:12.330Z,26.50
2018-07-24T18:20:40.990Z,26.30
2018-07-24T18:23:09.477Z,26.10
2018-07-24T18:25:37.971Z,26.10
2018-07-24T18:28:06.470Z,25.80
2018-07-24T18:30:34.939Z,25.80
2018-07-24T18:33:03.611Z,25.70
2018-07-24T18:38:00.546Z,25.90
2018-07-24T18:40:29.056Z,25.80
2018-07-24T18:42:57.675Z,25.80
2018-07-24T18:47:54.413Z,25.60
2018-07-24T18:50:22.895Z,25.50
2018-07-24T18:52:51.753Z,25.20
2018-07-24T18:55:20.329Z,25.10
2018-07-24T18:57:48.817Z,24.80
2018-07-24T19:00:17.336Z,24.60
2018-07-24T19:02:45.858Z,24.50
2018-07-24T19:05:14.405Z,24.40
2018-07-24T19:07:42.933Z,24.30
2018-07-24T19:10:11.565Z,24.40
2018-07-24T19:12:40.065Z,24.20
2018-07-24T19:15:09.631Z,24.10
2018-07-24T19:17:38.265Z,24.00
2018-07-24T19:20:06.755Z,24.00
2018-07-24T19:22:35.292Z,24.00
2018-07-24T19:25:03.960Z,23.80
2018-07-24T19:27:32.571Z,23.80
2018-07-24T19:30:01.144Z,23.70
2018-07-24T19:32:29.770Z,23.60
2018-07-24T19:34:59.000Z,23.60
2018-07-24T19:37:27.476Z,23.60
2018-07-24T19:39:56.767Z,23.60
2018-07-24T19:42:25.497Z,23.50
2018-07-24T19:44:54.063Z,23.40
2018-07-24T19:47:22.537Z,23.30
2018-07-24T19:49:51.256Z,23.40
2018-07-24T19:52:19.717Z,23.30
2018-07-24T19:54:48.246Z,23.30
2018-07-24T19:59:44.964Z,23.30
2018-07-24T20:02:13.659Z,23.20
2018-07-24T20:04:42.212Z,23.20
2018-07-24T20:07:10.864Z,23.30
2018-07-24T20:09:39.347Z,23.40
2018-07-24T20:12:08.019Z,23.20
2018-07-24T20:14:36.727Z,23.30
2018-07-24T20:17:05.239Z,23.20
2018-07-24T20:19:33.734Z,23.40
2018-07-24T20:22:02.210Z,23.40
2018-07-24T20:24:30.694Z,23.40
2018-07-24T20:26:59.184Z,23.30
2018-07-24T20:29:27.852Z,23.20
2018-07-24T20:31:56.313Z,23.20
2018-07-24T20:34:24.917Z,23.10
2018-07-24T20:36:53.423Z,23.00
2018-07-24T20:39:21.993Z,22.90
2018-07-24T20:41:50.637Z,23.00
2018-07-24T20:44:19.140Z,22.80
2018-07-24T20:46:47.638Z,22.90
2018-07-24T20:49:16.125Z,22.80
2018-07-24T20:51:44.649Z,22.90
2018-07-24T20:54:13.161Z,22.90
2018-07-24T20:56:41.632Z,22.90
2018-07-24T20:59:10.164Z,22.90
2018-07-24T21:01:38.709Z,22.90
2018-07-24T21:04:07.233Z,22.80
2018-07-24T21:06:35.729Z,22.90
2018-07-24T21:09:06.809Z,22.90
2018-07-24T21:11:35.332Z,22.80
2018-07-24T21:14:04.746Z,22.80
2018-07-24T21:16:33.544Z,22.80
2018-07-24T21:19:02.066Z,22.80
2018-07-24T21:21:31.406Z,22.80
2018-07-24T21:24:00.802Z,22.90
2018-07-24T21:26:29.279Z,22.90
2018-07-24T21:31:26.248Z,22.80
2018-07-24T21:33:54.730Z,22.90
2018-07-24T21:36:23.344Z,22.80
2018-07-24T21:38:51.840Z,22.90
2018-07-24T21:41:20.432Z,22.80
2018-07-24T21:43:48.957Z,22.80
2018-07-24T21:46:17.475Z,22.80
2018-07-24T21:48:45.972Z,22.80
2018-07-24T21:51:14.512Z,22.90
2018-07-24T21:53:43.120Z,22.80
2018-07-24T21:58:39.835Z,22.70
2018-07-24T22:01:11.360Z,22.70
2018-07-24T22:03:39.829Z,22.80
2018-07-24T22:06:08.617Z,22.70
2018-07-24T22:08:37.461Z,22.60
2018-07-24T22:11:06.017Z,22.50
2018-07-24T22:13:35.186Z,22.50
2018-07-24T22:16:03.745Z,22.70
2018-07-24T22:18:32.290Z,22.70
2018-07-24T22:21:00.803Z,22.70
2018-07-24T22:23:29.365Z,22.70
2018-07-24T22:25:57.839Z,22.60
2018-07-24T22:28:27.251Z,22.50
2018-07-24T22:33:24.498Z,22.30
2018-07-24T22:35:53.204Z,22.30
2018-07-24T22:38:21.670Z,22.30
2018-07-24T22:40:50.276Z,22.30
2018-07-24T22:45:47.027Z,22.30
2018-07-24T22:48:15.511Z,22.20
2018-07-24T22:50:44.033Z,22.20
2018-07-24T22:53:12.684Z,22.20
2018-07-24T22:55:41.260Z,22.20
2018-07-24T22:58:09.846Z,22.20
2018-07-24T23:00:38.313Z,22.10
2018-07-24T23:03:06.917Z,22.00
2018-07-24T23:05:35.487Z,22.00
2018-07-24T23:08:04.105Z,21.90
2018-07-24T23:10:34.855Z,21.80
2018-07-24T23:13:04.899Z,21.90
2018-07-24T23:15:33.411Z,21.80
2018-07-24T23:20:30.101Z,21.80
2018-07-24T23:22:58.742Z,21.80
2018-07-24T23:25:27.252Z,21.80
2018-07-24T23:27:55.886Z,21.80
2018-07-24T23:30:24.344Z,21.90
2018-07-24T23:32:52.837Z,22.00
2018-07-24T23:35:21.417Z,21.90
2018-07-24T23:37:49.864Z,21.90
2018-07-24T23:40:18.344Z,22.00
2018-07-24T23:42:47.718Z,22.10
2018-07-24T23:45:16.874Z,22.00
2018-07-24T23:47:45.302Z,22.00
2018-07-24T23:50:13.898Z,21.90
2018-07-24T23:52:42.475Z,22.10
2018-07-24T23:55:11.015Z,22.00
2018-07-24T23:57:39.456Z,21.90
